Time;durP1;ratioP1;P1;durP2;ratioP2;P2;SDS_P1;SDS_P2;PMS_P1;PMS_P2;Temp;Humidity;BMP_temperature;BMP_pressure;BME280_temperature;BME280_humidity;BME280_pressure;Samples;Min_cycle;Max_cycle;Signal;HPM_P1;HPM_P2
2023/12/06 00:00:51;;;;;;;14.55;5.47;;;;;;;-148.88;100.00;-17125.47;5074196;28;20028;-83
2023/12/06 00:03:17;;;;;;;12.60;5.47;;;;;;;-148.88;100.00;-17125.47;5074106;28;20016;-83
2023/12/06 00:05:42;;;;;;;12.57;5.40;;;;;;;-148.88;100.00;-17125.47;5074592;28;20062;-83
2023/12/06 00:08:08;;;;;;;11.95;5.47;;;;;;;-148.88;100.00;-17125.47;5073846;28;20035;-83
2023/12/06 00:10:33;;;;;;;13.20;5.13;;;;;;;-148.88;100.00;-17125.47;5074422;28;20020;-83
2023/12/06 00:12:59;;;;;;;14.05;5.43;;;;;;;-148.88;100.00;-17125.47;5073926;28;20087;-82
2023/12/06 00:15:24;;;;;;;12.18;5.65;;;;;;;-148.88;100.00;-17125.47;5072512;28;20024;-83
2023/12/06 00:17:50;;;;;;;14.18;5.30;;;;;;;-148.88;100.00;-17125.47;5073656;28;20016;-83
2023/12/06 00:20:15;;;;;;;12.35;5.03;;;;;;;-148.88;100.00;-17125.47;5072776;28;20107;-83
2023/12/06 00:22:40;;;;;;;11.20;4.70;;;;;;;-148.88;100.00;-17125.47;5074263;28;20036;-83
2023/12/06 00:25:06;;;;;;;14.32;6.07;;;;;;;-148.88;100.00;-17125.47;5074325;28;20037;-83
2023/12/06 00:27:32;;;;;;;12.40;5.13;;;;;;;-148.88;100.00;-17125.47;5074518;28;20024;-82
2023/12/06 00:29:57;;;;;;;14.70;6.75;;;;;;;-148.88;100.00;-17125.47;5074775;28;20092;-83
2023/12/06 00:32:23;;;;;;;13.85;5.20;;;;;;;-148.88;100.00;-17125.47;5074272;28;20442;-83
2023/12/06 00:34:48;;;;;;;20.00;6.65;;;;;;;-148.88;100.00;-17125.47;5073766;28;20494;-82
2023/12/06 00:37:13;;;;;;;13.95;5.97;;;;;;;-148.88;100.00;-17125.47;5073780;28;20029;-83
2023/12/06 00:39:39;;;;;;;13.70;6.40;;;;;;;-148.88;100.00;-17125.47;5072783;28;20060;-83
2023/12/06 00:42:04;;;;;;;14.35;5.95;;;;;;;-148.88;100.00;-17125.47;5072283;28;20020;-83
2023/12/06 00:44:30;;;;;;;17.48;6.80;;;;;;;-148.88;100.00;-17125.47;5073635;28;20057;-83
2023/12/06 00:46:55;;;;;;;16.58;6.13;;;;;;;-148.88;100.00;-17125.47;5073357;28;20025;-83
2023/12/06 00:49:20;;;;;;;16.20;6.65;;;;;;;-148.88;100.00;-17125.47;5072979;28;20097;-83
2023/12/06 00:51:46;;;;;;;14.18;6.28;;;;;;;-148.88;100.00;-17125.47;5074783;28;20048;-83
2023/12/06 00:54:11;;;;;;;17.55;6.22;;;;;;;-148.88;100.00;-17125.47;5073207;28;20043;-83
2023/12/06 00:56:36;;;;;;;14.40;6.90;;;;;;;-148.88;100.00;-17125.47;5074676;28;20073;-83
2023/12/06 00:59:04;;;;;;;15.75;6.45;;;;;;;-148.88;100.00;-17125.47;5074727;28;20024;-84
2023/12/06 01:01:29;;;;;;;15.77;6.72;;;;;;;-148.88;100.00;-17125.47;5075039;28;20502;-83
2023/12/06 01:03:54;;;;;;;13.65;5.60;;;;;;;-148.88;100.00;-17125.47;5075622;28;20024;-84
2023/12/06 01:06:20;;;;;;;15.30;5.90;;;;;;;-148.88;100.00;-17125.47;5075061;28;20107;-83
2023/12/06 01:08:48;;;;;;;19.10;7.00;;;;;;;-148.88;100.00;-17125.47;5074360;28;20024;-82
2023/12/06 01:11:13;;;;;;;11.05;5.40;;;;;;;-148.88;100.00;-17125.47;5075544;28;20020;-83
2023/12/06 01:13:39;;;;;;;18.63;7.45;;;;;;;-148.88;100.00;-17125.47;5076304;28;20031;-83
2023/12/06 01:16:05;;;;;;;13.82;6.60;;;;;;;-148.88;100.00;-17125.47;5075471;28;20043;-83
2023/12/06 01:18:30;;;;;;;13.52;5.70;;;;;;;-148.88;100.00;-17125.47;5073512;28;20083;-83
2023/12/06 01:20:55;;;;;;;14.93;6.90;;;;;;;-148.88;100.00;-17125.47;5075315;28;20020;-83
2023/12/06 01:23:21;;;;;;;19.73;7.47;;;;;;;-148.88;100.00;-17125.47;5074306;28;20035;-83
2023/12/06 01:25:46;;;;;;;16.67;7.03;;;;;;;-148.88;100.00;-17125.47;5074964;28;20476;-83
2023/12/06 01:28:12;;;;;;;17.27;6.45;;;;;;;-148.88;100.00;-17125.47;5074528;28;20016;-83
2023/12/06 01:30:37;;;;;;;19.13;7.00;;;;;;;-148.88;100.00;-17125.47;5075421;28;20121;-83
2023/12/06 01:33:02;;;;;;;16.40;7.20;;;;;;;-148.88;100.00;-17125.47;5074637;28;20028;-83
2023/12/06 01:35:28;;;;;;;19.02;7.70;;;;;;;-148.88;100.00;-17125.47;5075224;28;20371;-83
2023/12/06 01:37:53;;;;;;;18.58;7.10;;;;;;;-148.88;100.00;-17125.47;5075696;28;20041;-83
2023/12/06 01:40:19;;;;;;;19.60;7.32;;;;;;;-148.88;100.00;-17125.47;5075759;28;20031;-83
2023/12/06 01:42:46;;;;;;;19.05;8.07;;;;;;;-148.88;100.00;-17125.47;5075642;28;20494;-83
2023/12/06 01:45:11;;;;;;;23.85;8.73;;;;;;;-148.88;100.00;-17125.47;5077179;28;20043;-83
2023/12/06 01:47:38;;;;;;;24.27;8.70;;;;;;;-148.88;100.00;-17125.47;5075454;28;20032;-82
2023/12/06 01:50:04;;;;;;;26.67;10.35;;;;;;;-148.88;100.00;-17125.47;5077600;28;20093;-83
2023/12/06 01:52:30;;;;;;;19.67;8.20;;;;;;;-148.88;100.00;-17125.47;5079485;28;20514;-82
2023/12/06 01:54:58;;;;;;;26.88;10.00;;;;;;;-148.88;100.00;-17125.47;5077737;28;20020;-82
2023/12/06 01:57:25;;;;;;;29.80;10.30;;;;;;;-148.88;100.00;-17125.47;5077583;28;20036;-82
2023/12/06 01:59:53;;;;;;;27.60;11.15;;;;;;;-148.88;100.00;-17125.47;5077516;28;20475;-82
2023/12/06 02:02:19;;;;;;;24.55;9.93;;;;;;;-148.88;100.00;-17125.47;5076244;28;20029;-83
2023/12/06 02:04:44;;;;;;;29.73;10.68;;;;;;;-148.88;100.00;-17125.47;5076091;28;20129;-82
2023/12/06 02:07:11;;;;;;;28.15;11.23;;;;;;;-148.88;100.00;-17125.47;5077672;28;20021;-82
2023/12/06 02:09:36;;;;;;;33.03;10.85;;;;;;;-148.88;100.00;-17125.47;5077155;28;20094;-83
2023/12/06 02:12:02;;;;;;;27.50;11.27;;;;;;;-148.88;100.00;-17125.47;5077532;28;20012;-83
2023/12/06 02:14:33;;;;;;;29.25;11.13;;;;;;;-148.88;100.00;-17125.47;5075811;28;20105;-81
2023/12/06 02:17:00;;;;;;;26.73;10.05;;;;;;;-148.88;100.00;-17125.47;5076790;28;20020;-82
2023/12/06 02:19:27;;;;;;;27.77;9.40;;;;;;;-148.88;100.00;-17125.47;5076440;28;20105;-83
2023/12/06 02:21:53;;;;;;;26.90;9.82;;;;;;;-148.88;100.00;-17125.47;5076585;28;20115;-82
2023/12/06 02:24:19;;;;;;;26.08;10.70;;;;;;;-148.88;100.00;-17125.47;5076708;28;20056;-82
2023/12/06 02:26:45;;;;;;;28.80;10.35;;;;;;;-148.88;100.00;-17125.47;5077048;28;20024;-83
2023/12/06 02:29:10;;;;;;;25.30;10.25;;;;;;;-148.88;100.00;-17125.47;5077067;28;20020;-83
2023/12/06 02:31:36;;;;;;;25.38;9.50;;;;;;;-148.88;100.00;-17125.47;5077038;28;20052;-83
2023/12/06 02:34:17;;;;;;;25.75;10.10;;;;;;;-148.88;100.00;-17125.47;5076353;28;20084;-82
2023/12/06 02:36:49;;;;;;;25.77;10.10;;;;;;;-148.88;100.00;-17125.47;5076524;28;20020;-82
2023/12/06 02:39:16;;;;;;;27.38;10.63;;;;;;;-148.88;100.00;-17125.47;5076798;28;20016;-82
2023/12/06 02:41:42;;;;;;;26.02;11.02;;;;;;;-148.88;100.00;-17125.47;5076768;28;20467;-83
2023/12/06 02:44:07;;;;;;;25.92;9.35;;;;;;;-148.88;100.00;-17125.47;5077194;28;20170;-82
2023/12/06 02:46:35;;;;;;;20.13;9.55;;;;;;;-148.88;100.00;-17125.47;5077177;28;20054;-83
2023/12/06 02:49:00;;;;;;;29.65;10.40;;;;;;;-148.88;100.00;-17125.47;5075243;28;20029;-82
2023/12/06 02:51:26;;;;;;;26.70;10.88;;;;;;;-148.88;100.00;-17125.47;5076282;28;20056;-82
2023/12/06 02:53:51;;;;;;;30.10;10.38;;;;;;;-148.88;100.00;-17125.47;5075946;28;20029;-82
2023/12/06 02:56:17;;;;;;;29.23;9.88;;;;;;;-148.88;100.00;-17125.47;5076142;28;20073;-82
2023/12/06 02:58:42;;;;;;;29.20;11.05;;;;;;;-148.88;100.00;-17125.47;5076224;28;20099;-83
2023/12/06 03:01:07;;;;;;;20.02;7.85;;;;;;;-148.88;100.00;-17125.47;5075668;28;20048;-83
2023/12/06 03:03:33;;;;;;;27.73;9.23;;;;;;;-148.88;100.00;-17125.47;5075789;28;20379;-82
2023/12/06 03:05:58;;;;;;;34.33;10.70;;;;;;;-148.88;100.00;-17125.47;5076257;28;20102;-82
2023/12/06 03:08:26;;;;;;;25.80;9.75;;;;;;;-148.88;100.00;-17125.47;5076052;28;20394;-83
2023/12/06 03:10:51;;;;;;;28.00;10.73;;;;;;;-148.88;100.00;-17125.47;5076245;28;20033;-83
2023/12/06 03:13:16;;;;;;;24.13;9.98;;;;;;;-148.88;100.00;-17125.47;5076047;28;20453;-82
2023/12/06 03:15:42;;;;;;;28.65;9.13;;;;;;;-148.88;100.00;-17125.47;5076408;28;20550;-82
2023/12/06 03:18:07;;;;;;;26.40;9.25;;;;;;;-148.88;100.00;-17125.47;5076357;28;20031;-82
2023/12/06 03:20:33;;;;;;;24.67;9.73;;;;;;;-148.88;100.00;-17125.47;5076854;28;20039;-83
2023/12/06 03:22:59;;;;;;;26.13;9.65;;;;;;;-148.88;100.00;-17125.47;5076422;28;20108;-83
2023/12/06 03:25:25;;;;;;;27.70;10.07;;;;;;;-148.88;100.00;-17125.47;5075796;28;20154;-82
2023/12/06 03:27:50;;;;;;;25.10;10.57;;;;;;;-148.88;100.00;-17125.47;5075429;28;20051;-82
2023/12/06 03:30:15;;;;;;;30.27;10.15;;;;;;;-148.88;100.00;-17125.47;5076111;28;20419;-83
2023/12/06 03:32:42;;;;;;;27.05;9.95;;;;;;;-148.88;100.00;-17125.47;5076049;28;20028;-83
2023/12/06 03:35:07;;;;;;;31.92;9.88;;;;;;;-148.88;100.00;-17125.47;5075545;28;20054;-82
2023/12/06 03:37:33;;;;;;;25.67;9.95;;;;;;;-148.88;100.00;-17125.47;5075731;28;20033;-82
2023/12/06 03:39:58;;;;;;;23.77;9.15;;;;;;;-148.88;100.00;-17125.47;5075453;28;20475;-82
2023/12/06 03:42:24;;;;;;;29.25;10.15;;;;;;;-148.88;100.00;-17125.47;5074061;28;20479;-83
2023/12/06 03:44:49;;;;;;;27.23;10.50;;;;;;;-148.88;100.00;-17125.47;5075905;28;20013;-82
2023/12/06 03:47:15;;;;;;;26.48;10.43;;;;;;;-148.88;100.00;-17125.47;5075874;28;20518;-83
2023/12/06 03:49:40;;;;;;;26.77;9.93;;;;;;;-148.88;100.00;-17125.47;5075935;28;20533;-83
2023/12/06 03:52:09;;;;;;;28.98;10.55;;;;;;;-148.88;100.00;-17125.47;5074312;28;20018;-83
2023/12/06 03:54:34;;;;;;;28.33;9.07;;;;;;;-148.88;100.00;-17125.47;5075992;28;20028;-83
2023/12/06 03:57:00;;;;;;;23.00;9.60;;;;;;;-148.88;100.00;-17125.47;5075835;28;20074;-83
2023/12/06 03:59:25;;;;;;;28.67;10.88;;;;;;;-148.88;100.00;-17125.47;5075391;28;20031;-83
2023/12/06 04:01:51;;;;;;;24.90;9.43;;;;;;;-148.88;100.00;-17125.47;5075397;28;20066;-84
2023/12/06 04:04:16;;;;;;;30.65;11.13;;;;;;;-148.88;100.00;-17125.47;5073671;28;20043;-83
2023/12/06 04:06:42;;;;;;;28.05;11.13;;;;;;;-148.88;100.00;-17125.47;5075109;28;20035;-83
2023/12/06 04:09:07;;;;;;;29.73;10.45;;;;;;;-148.88;100.00;-17125.47;5075055;28;20032;-83
2023/12/06 04:11:33;;;;;;;28.50;10.60;;;;;;;-148.88;100.00;-17125.47;5075010;28;20024;-83
2023/12/06 04:13:58;;;;;;;32.92;10.30;;;;;;;-148.88;100.00;-17125.47;5074263;28;20052;-83
2023/12/06 04:16:24;;;;;;;27.25;10.20;;;;;;;-148.88;100.00;-17125.47;5075746;28;20131;-83
2023/12/06 04:18:49;;;;;;;31.80;10.48;;;;;;;-148.88;100.00;-17125.47;5075294;28;20029;-83
2023/12/06 04:21:16;;;;;;;26.10;9.40;;;;;;;-148.88;100.00;-17125.47;5075117;28;20016;-83
2023/12/06 04:23:41;;;;;;;29.77;10.52;;;;;;;-148.88;100.00;-17125.47;5075609;28;20021;-83
2023/12/06 04:26:07;;;;;;;35.75;11.90;;;;;;;-148.88;100.00;-17125.47;5075658;28;20403;-83
2023/12/06 04:28:32;;;;;;;30.63;9.75;;;;;;;-148.88;100.00;-17125.47;5088401;28;20028;-83
2023/12/06 04:30:57;;;;;;;33.70;11.00;;;;;;;-148.88;100.00;-17125.47;5098545;28;20031;-85
2023/12/06 04:33:23;;;;;;;25.95;9.45;;;;;;;-148.88;100.00;-17125.47;5090829;28;20032;-84
2023/12/06 04:35:48;;;;;;;33.63;10.88;;;;;;;-148.88;100.00;-17125.47;5080578;28;20025;-84
2023/12/06 04:38:13;;;;;;;28.00;10.00;;;;;;;-148.88;100.00;-17125.47;5079498;28;20099;-84
2023/12/06 04:40:39;;;;;;;32.70;11.07;;;;;;;-148.88;100.00;-17125.47;5079384;28;20483;-83
2023/12/06 04:43:04;;;;;;;32.65;11.32;;;;;;;-148.88;100.00;-17125.47;5079343;28;20024;-83
2023/12/06 04:45:30;;;;;;;26.30;10.57;;;;;;;-148.88;100.00;-17125.47;5075463;28;20021;-82
2023/12/06 04:47:55;;;;;;;34.97;12.23;;;;;;;-148.88;100.00;-17125.47;5074133;28;20024;-83
2023/12/06 04:50:21;;;;;;;31.38;10.98;;;;;;;-148.88;100.00;-17125.47;5074892;28;20044;-82
2023/12/06 04:52:46;;;;;;;32.20;11.60;;;;;;;-148.88;100.00;-17125.47;5074538;28;20042;-83
2023/12/06 04:55:12;;;;;;;30.48;11.45;;;;;;;-148.88;100.00;-17125.47;5074643;28;20032;-83
2023/12/06 04:57:37;;;;;;;32.80;11.27;;;;;;;-148.88;100.00;-17125.47;5074629;28;20055;-83
2023/12/06 05:00:05;;;;;;;31.48;11.30;;;;;;;-148.88;100.00;-17125.47;5074808;28;20020;-82
2023/12/06 05:02:30;;;;;;;35.33;12.95;;;;;;;-148.88;100.00;-17125.47;5073864;28;20040;-83
2023/12/06 05:04:55;;;;;;;34.97;12.07;;;;;;;-148.88;100.00;-17125.47;5074592;28;20390;-82
2023/12/06 05:07:21;;;;;;;31.40;11.63;;;;;;;-148.88;100.00;-17125.47;5074137;28;20498;-82
2023/12/06 05:09:46;;;;;;;37.58;12.45;;;;;;;-148.88;100.00;-17125.47;5072891;28;20522;-82
2023/12/06 05:12:12;;;;;;;34.60;11.07;;;;;;;-148.88;100.00;-17125.47;5074363;28;20056;-82
2023/12/06 05:14:37;;;;;;;35.50;11.98;;;;;;;-148.88;100.00;-17125.47;5074360;28;20016;-82
2023/12/06 05:17:02;;;;;;;36.30;12.80;;;;;;;-148.88;100.00;-17125.47;5074130;28;20089;-82
2023/12/06 05:19:28;;;;;;;40.28;12.57;;;;;;;-148.88;100.00;-17125.47;5074559;28;20020;-83
2023/12/06 05:21:53;;;;;;;36.88;11.93;;;;;;;-148.88;100.00;-17125.47;5074582;28;20029;-82
2023/12/06 05:24:20;;;;;;;33.55;12.32;;;;;;;-148.88;100.00;-17125.47;5075221;28;20024;-82
2023/12/06 05:26:45;;;;;;;31.83;11.70;;;;;;;-148.88;100.00;-17125.47;5082309;28;20016;-84
2023/12/06 05:29:11;;;;;;;36.90;13.05;;;;;;;-148.88;100.00;-17125.47;5081708;28;20032;-84
2023/12/06 05:31:36;;;;;;;29.73;12.07;;;;;;;-148.88;100.00;-17125.47;5081192;28;20020;-82
2023/12/06 05:34:02;;;;;;;39.97;13.45;;;;;;;-148.88;100.00;-17125.47;5081843;28;20047;-82
2023/12/06 05:36:27;;;;;;;32.75;10.65;;;;;;;-148.88;100.00;-17125.47;5081849;28;20039;-83
2023/12/06 05:38:52;;;;;;;41.47;13.15;;;;;;;-148.88;100.00;-17125.47;5085796;28;20020;-82
2023/12/06 05:41:18;;;;;;;37.28;12.65;;;;;;;-148.88;100.00;-17125.47;5080072;28;20154;-82
2023/12/06 05:43:43;;;;;;;39.83;15.13;;;;;;;-148.88;100.00;-17125.47;5080329;28;20368;-82
2023/12/06 05:46:09;;;;;;;33.58;12.30;;;;;;;-148.88;100.00;-17125.47;5080166;28;20066;-82
2023/12/06 05:48:34;;;;;;;39.55;13.63;;;;;;;-148.88;100.00;-17125.47;5079615;28;20020;-83
2023/12/06 05:50:59;;;;;;;33.47;12.68;;;;;;;-148.88;100.00;-17125.47;5078591;28;20017;-81
2023/12/06 05:53:25;;;;;;;40.92;12.88;;;;;;;-148.88;100.00;-17125.47;5079697;28;20023;-81
2023/12/06 05:55:50;;;;;;;35.22;13.13;;;;;;;-148.88;100.00;-17125.47;5078739;28;20126;-82
2023/12/06 05:58:16;;;;;;;41.53;13.15;;;;;;;-148.88;100.00;-17125.47;5079787;28;20024;-79
2023/12/06 06:00:41;;;;;;;36.28;12.40;;;;;;;-148.88;100.00;-17125.47;5079759;28;20035;-81
2023/12/06 06:03:06;;;;;;;36.22;13.13;;;;;;;-148.88;100.00;-17125.47;5080475;28;20020;-80
2023/12/06 06:05:33;;;;;;;37.30;13.68;;;;;;;-148.88;100.00;-17125.47;5080124;28;20059;-80
2023/12/06 06:07:59;;;;;;;36.80;13.82;;;;;;;-148.88;100.00;-17125.47;5078734;28;20475;-80
2023/12/06 06:10:25;;;;;;;31.60;12.65;;;;;;;-148.88;100.00;-17125.47;5080782;28;20055;-80
2023/12/06 06:12:50;;;;;;;37.30;13.23;;;;;;;-148.88;100.00;-17125.47;5079627;28;20491;-81
2023/12/06 06:15:16;;;;;;;39.35;14.07;;;;;;;-148.88;100.00;-17125.47;5080141;28;20035;-81
2023/12/06 06:17:41;;;;;;;35.67;12.73;;;;;;;-148.88;100.00;-17125.47;5078646;28;20093;-81
2023/12/06 06:20:09;;;;;;;40.67;13.13;;;;;;;-148.88;100.00;-17125.47;5080745;28;20058;-81
2023/12/06 06:22:35;;;;;;;38.83;13.65;;;;;;;-148.88;100.00;-17125.47;5078646;28;20486;-81
2023/12/06 06:25:00;;;;;;;38.60;13.80;;;;;;;-148.88;100.00;-17125.47;5078644;28;20032;-80
2023/12/06 06:27:25;;;;;;;42.03;15.15;;;;;;;-148.88;100.00;-17125.47;5079002;28;20070;-81
2023/12/06 06:29:51;;;;;;;33.78;12.85;;;;;;;-148.88;100.00;-17125.47;5080448;28;20052;-80
2023/12/06 06:32:16;;;;;;;40.22;13.88;;;;;;;-148.88;100.00;-17125.47;5080433;28;20071;-81
2023/12/06 06:34:42;;;;;;;42.35;14.95;;;;;;;-148.88;100.00;-17125.47;5079238;28;20036;-81
2023/12/06 06:37:08;;;;;;;37.67;13.77;;;;;;;-148.88;100.00;-17125.47;5076444;28;20555;-81
2023/12/06 06:39:34;;;;;;;41.03;15.32;;;;;;;-148.88;100.00;-17125.47;5076837;28;20085;-82
2023/12/06 06:41:59;;;;;;;40.75;15.18;;;;;;;-148.88;100.00;-17125.47;5075757;28;20028;-81
2023/12/06 06:44:25;;;;;;;44.08;16.20;;;;;;;-148.88;100.00;-17125.47;5077230;28;20111;-81
2023/12/06 06:46:51;;;;;;;43.97;15.23;;;;;;;-148.88;100.00;-17125.47;5076000;28;20028;-82
2023/12/06 06:49:16;;;;;;;39.80;14.20;;;;;;;-148.88;100.00;-17125.47;5077008;28;20032;-81
2023/12/06 06:51:41;;;;;;;43.30;15.10;;;;;;;-148.88;100.00;-17125.47;5076532;28;20499;-80
2023/12/06 06:54:07;;;;;;;50.53;16.70;;;;;;;-148.88;100.00;-17125.47;5076216;28;20032;-82
2023/12/06 06:56:33;;;;;;;46.22;16.77;;;;;;;-148.88;100.00;-17125.47;5076383;28;20029;-81
2023/12/06 06:58:58;;;;;;;41.00;16.23;;;;;;;-148.88;100.00;-17125.47;5076029;28;20396;-83
2023/12/06 07:01:24;;;;;;;40.22;16.52;;;;;;;-148.88;100.00;-17125.47;5076106;28;20360;-83
2023/12/06 07:03:50;;;;;;;52.63;17.60;;;;;;;-148.88;100.00;-17125.47;5073145;28;20245;-82
2023/12/06 07:06:15;;;;;;;38.97;15.32;;;;;;;-148.88;100.00;-17125.47;5073590;28;20094;-82
2023/12/06 07:08:41;;;;;;;39.90;15.02;;;;;;;-148.88;100.00;-17125.47;5075404;28;20032;-83
2023/12/06 07:11:07;;;;;;;41.75;17.45;;;;;;;-148.88;100.00;-17125.47;5076033;28;20025;-82
2023/12/06 07:13:34;;;;;;;48.38;16.92;;;;;;;-148.88;100.00;-17125.47;5074616;28;20128;-81
2023/12/06 07:16:00;;;;;;;53.42;19.42;;;;;;;-148.88;100.00;-17125.47;5076123;28;20111;-80
2023/12/06 07:18:28;;;;;;;49.53;18.08;;;;;;;-148.88;100.00;-17125.47;5074892;28;20044;-82
2023/12/06 07:20:53;;;;;;;47.85;17.20;;;;;;;-148.88;100.00;-17125.47;5074771;28;20028;-81
2023/12/06 07:23:19;;;;;;;46.70;17.02;;;;;;;-148.88;100.00;-17125.47;5076266;28;20028;-82
2023/12/06 07:25:48;;;;;;;47.60;17.60;;;;;;;-148.88;100.00;-17125.47;5073700;28;20024;-81
2023/12/06 07:28:13;;;;;;;52.58;18.92;;;;;;;-148.88;100.00;-17125.47;5073862;28;20128;-82
2023/12/06 07:30:40;;;;;;;46.92;18.13;;;;;;;-148.88;100.00;-17125.47;5073969;28;20491;-82
2023/12/06 07:33:08;;;;;;;51.97;17.75;;;;;;;-148.88;100.00;-17125.47;5074114;28;20032;-83
2023/12/06 07:35:35;;;;;;;52.17;18.80;;;;;;;-148.88;100.00;-17125.47;5073777;28;20027;-81
2023/12/06 07:38:00;;;;;;;53.75;19.33;;;;;;;-148.88;100.00;-17125.47;5075005;28;20032;-80
2023/12/06 07:40:26;;;;;;;49.55;17.60;;;;;;;-148.88;100.00;-17125.47;5073522;28;20020;-81
2023/12/06 07:42:52;;;;;;;54.55;18.27;;;;;;;-148.88;100.00;-17125.47;5074494;28;20025;-81
2023/12/06 07:45:17;;;;;;;57.33;20.05;;;;;;;-148.88;100.00;-17125.47;5074780;28;20028;-82
2023/12/06 07:47:43;;;;;;;50.70;17.05;;;;;;;-148.88;100.00;-17125.47;5073232;28;20031;-81
2023/12/06 07:50:09;;;;;;;51.15;16.75;;;;;;;-148.88;100.00;-17125.47;5075364;28;20107;-81
2023/12/06 07:52:36;;;;;;;47.10;18.17;;;;;;;-148.88;100.00;-17125.47;5075117;28;20016;-82
2023/12/06 07:55:06;;;;;;;48.90;19.55;;;;;;;-148.88;100.00;-17125.47;5073748;28;20035;-81
2023/12/06 07:57:31;;;;;;;54.70;17.90;;;;;;;-148.88;100.00;-17125.47;5075747;28;20067;-82
2023/12/06 07:59:58;;;;;;;57.90;19.13;;;;;;;-148.88;100.00;-17125.47;5075077;28;20479;-82
2023/12/06 08:02:24;;;;;;;51.15;18.52;;;;;;;-148.88;100.00;-17125.47;5073394;28;20021;-84
2023/12/06 08:04:49;;;;;;;44.50;16.77;;;;;;;-148.88;100.00;-17125.47;5074801;28;20029;-81
2023/12/06 08:07:14;;;;;;;49.30;16.92;;;;;;;-148.88;100.00;-17125.47;5073254;28;20073;-83
2023/12/06 08:09:40;;;;;;;45.78;16.70;;;;;;;-148.88;100.00;-17125.47;5074280;28;20020;-81
2023/12/06 08:12:07;;;;;;;56.85;18.40;;;;;;;-148.88;100.00;-17125.47;5073030;28;20016;-81
2023/12/06 08:14:33;;;;;;;47.55;16.35;;;;;;;-148.88;100.00;-17125.47;5074513;28;20498;-81
2023/12/06 08:16:58;;;;;;;48.92;17.83;;;;;;;-148.88;100.00;-17125.47;5073975;28;20112;-81
2023/12/06 08:19:24;;;;;;;46.50;15.88;;;;;;;-148.88;100.00;-17125.47;5074607;28;20056;-83
2023/12/06 08:21:49;;;;;;;49.38;17.25;;;;;;;-148.88;100.00;-17125.47;5074774;28;20021;-82
2023/12/06 08:24:15;;;;;;;48.30;17.60;;;;;;;-148.88;100.00;-17125.47;5074406;28;20028;-82
2023/12/06 08:26:44;;;;;;;50.42;17.73;;;;;;;-148.88;100.00;-17125.47;5074621;28;20028;-82
2023/12/06 08:29:09;;;;;;;47.75;17.42;;;;;;;-148.88;100.00;-17125.47;5074343;28;20044;-82
2023/12/06 08:31:38;;;;;;;46.47;16.23;;;;;;;-148.88;100.00;-17125.47;5073759;28;20494;-81
2023/12/06 08:34:03;;;;;;;38.88;15.90;;;;;;;-148.88;100.00;-17125.47;5075237;28;20035;-81
2023/12/06 08:36:29;;;;;;;43.08;15.60;;;;;;;-148.88;100.00;-17125.47;5074637;28;20107;-82
2023/12/06 08:38:54;;;;;;;44.30;16.73;;;;;;;-148.88;100.00;-17125.47;5072972;28;20090;-82
2023/12/06 08:41:22;;;;;;;40.22;15.40;;;;;;;-148.88;100.00;-17125.47;5072857;28;20055;-83
2023/12/06 08:43:47;;;;;;;41.33;15.25;;;;;;;-148.88;100.00;-17125.47;5073153;28;20016;-83
2023/12/06 08:46:12;;;;;;;43.85;16.00;;;;;;;-148.88;100.00;-17125.47;5074762;28;20033;-83
2023/12/06 08:48:38;;;;;;;44.45;15.88;;;;;;;-148.88;100.00;-17125.47;5074650;28;20028;-83
2023/12/06 08:51:03;;;;;;;40.63;16.05;;;;;;;-148.88;100.00;-17125.47;5074565;28;20013;-84
2023/12/06 08:53:29;;;;;;;41.78;16.23;;;;;;;-148.88;100.00;-17125.47;5075105;28;20056;-84
2023/12/06 08:55:54;;;;;;;43.53;14.68;;;;;;;-148.88;100.00;-17125.47;5074558;28;20027;-84
2023/12/06 08:58:20;;;;;;;46.60;15.88;;;;;;;-148.88;100.00;-17125.47;5075807;28;20074;-81
2023/12/06 09:00:46;;;;;;;40.53;15.15;;;;;;;-148.88;100.00;-17125.47;5073165;28;20024;-83
2023/12/06 09:03:11;;;;;;;37.95;14.65;;;;;;;-148.88;100.00;-17125.47;5074800;28;20028;-84
2023/12/06 09:05:38;;;;;;;38.03;14.40;;;;;;;-148.88;100.00;-17125.47;5074146;28;20479;-83
2023/12/06 09:08:05;;;;;;;43.70;15.02;;;;;;;-148.88;100.00;-17125.47;5073723;28;20414;-84
2023/12/06 09:10:31;;;;;;;45.80;15.52;;;;;;;-148.88;100.00;-17125.47;5073869;28;20028;-83
2023/12/06 09:12:56;;;;;;;35.70;14.73;;;;;;;-148.88;100.00;-17125.47;5073330;28;20020;-83
2023/12/06 09:15:22;;;;;;;43.22;14.63;;;;;;;-148.88;100.00;-17125.47;5072508;28;20032;-82
2023/12/06 09:17:47;;;;;;;38.78;15.43;;;;;;;-148.88;100.00;-17125.47;5072398;28;20387;-83
2023/12/06 09:20:13;;;;;;;40.53;14.55;;;;;;;-148.88;100.00;-17125.47;5071962;28;20028;-82
2023/12/06 09:22:39;;;;;;;39.13;15.98;;;;;;;-148.88;100.00;-17125.47;5073179;28;20115;-83
2023/12/06 09:25:05;;;;;;;46.63;14.98;;;;;;;-148.88;100.00;-17125.47;5073275;28;20033;-83
2023/12/06 09:27:31;;;;;;;44.78;14.13;;;;;;;-148.88;100.00;-17125.47;5073835;28;20103;-82
2023/12/06 09:29:57;;;;;;;42.00;15.05;;;;;;;-148.88;100.00;-17125.47;5073653;28;20027;-82
2023/12/06 09:32:23;;;;;;;40.78;15.05;;;;;;;-148.88;100.00;-17125.47;5072996;28;20024;-82
2023/12/06 09:34:49;;;;;;;40.95;15.18;;;;;;;-148.88;100.00;-17125.47;5074077;28;20095;-83
2023/12/06 09:37:15;;;;;;;39.90;15.13;;;;;;;-148.88;100.00;-17125.47;5073560;28;20108;-83
2023/12/06 09:39:41;;;;;;;40.72;13.27;;;;;;;-148.88;100.00;-17125.47;5073703;28;20021;-82
2023/12/06 09:42:06;;;;;;;40.20;14.90;;;;;;;-148.88;100.00;-17125.47;5073762;28;20021;-82
2023/12/06 09:44:32;;;;;;;37.58;15.98;;;;;;;-148.88;100.00;-17125.47;5074035;28;20039;-83
2023/12/06 09:47:01;;;;;;;43.40;15.95;;;;;;;-148.88;100.00;-17125.47;5073209;28;20029;-83
2023/12/06 09:49:27;;;;;;;40.15;13.85;;;;;;;-148.88;100.00;-17125.47;5071869;28;20028;-82
2023/12/06 09:52:03;;;;;;;42.13;14.55;;;;;;;-148.88;100.00;-17125.47;5073125;28;20158;-83
2023/12/06 09:54:28;;;;;;;40.72;14.93;;;;;;;-148.88;100.00;-17125.47;5073924;28;20028;-83
2023/12/06 09:56:54;;;;;;;38.60;13.48;;;;;;;-148.88;100.00;-17125.47;5073225;28;20020;-84
2023/12/06 09:59:19;;;;;;;36.92;12.85;;;;;;;-148.88;100.00;-17125.47;5073144;28;20027;-83
2023/12/06 10:01:44;;;;;;;36.00;12.98;;;;;;;-148.88;100.00;-17125.47;5072747;28;20483;-83
2023/12/06 10:04:10;;;;;;;35.63;13.70;;;;;;;-148.88;100.00;-17125.47;5073349;28;20024;-83
2023/12/06 10:06:35;;;;;;;36.13;15.23;;;;;;;-148.88;100.00;-17125.47;5073782;28;20078;-82
2023/12/06 10:09:01;;;;;;;37.85;13.00;;;;;;;-148.88;100.00;-17125.47;5073196;28;20108;-83
2023/12/06 10:11:28;;;;;;;34.55;13.38;;;;;;;-148.88;100.00;-17125.47;5072310;28;20122;-83
2023/12/06 10:13:54;;;;;;;30.20;12.65;;;;;;;-148.88;100.00;-17125.47;5076074;28;20033;-82
2023/12/06 10:16:37;;;;;;;;;;;;;;;;;;;;;
2023/12/06 10:19:06;;;;;;;33.65;13.18;;;;;;;-148.88;100.00;-17125.47;5078217;28;20024;-83
2023/12/06 10:21:34;;;;;;;38.13;13.27;;;;;;;-148.88;100.00;-17125.47;5077168;28;20020;-83
2023/12/06 10:24:00;;;;;;;36.38;13.38;;;;;;;-148.88;100.00;-17125.47;5076970;28;20063;-83
2023/12/06 10:26:30;;;;;;;35.60;13.23;;;;;;;-148.88;100.00;-17125.47;5075547;28;20023;-83
2023/12/06 10:28:56;;;;;;;31.38;12.13;;;;;;;-148.88;100.00;-17125.47;5076642;28;20078;-83
2023/12/06 10:31:21;;;;;;;28.92;12.30;;;;;;;-148.88;100.00;-17125.47;5076397;28;20020;-82
2023/12/06 10:33:54;;;;;;;31.45;12.32;;;;;;;-148.88;100.00;-17125.47;5076960;28;20094;-82
2023/12/06 10:36:25;;;;;;;27.83;10.88;;;;;;;-148.88;100.00;-17125.47;5077601;28;20016;-83
2023/12/06 10:38:51;;;;;;;29.45;12.63;;;;;;;-148.88;100.00;-17125.47;5075039;28;20410;-83
2023/12/06 10:41:20;;;;;;;29.80;12.13;;;;;;;-148.88;100.00;-17125.47;5076223;28;20360;-87
2023/12/06 10:43:47;;;;;;;30.33;11.90;;;;;;;-148.88;100.00;-17125.47;5076023;28;20028;-87